sensor_id;sensor_type;location;lat;lon;timestamp;pressure;altitude;pressure_sealevel;temperature;humidity
64844;BME280;51310;52.198;5.422;2024-01-25T00:00:06;102550.75;;;7.49;100.00
64844;BME280;51310;52.198;5.422;2024-01-25T00:02:33;102572.88;;;7.53;100.00
64844;BME280;51310;52.198;5.422;2024-01-25T00:04:59;102552.75;;;7.40;100.00
64844;BME280;51310;52.198;5.422;2024-01-25T00:07:25;102546.59;;;7.38;100.00
64844;BME280;51310;52.198;5.422;2024-01-25T00:09:50;102571.31;;;7.43;100.00
64844;BME280;51310;52.198;5.422;2024-01-25T00:12:16;102570.53;;;7.39;100.00
64844;BME280;51310;52.198;5.422;2024-01-25T00:14:42;102575.72;;;7.44;100.00
64844;BME280;51310;52.198;5.422;2024-01-25T00:17:08;102573.31;;;7.32;100.00
64844;BME280;51310;52.198;5.422;2024-01-25T00:19:34;102574.22;;;7.32;100.00
64844;BME280;51310;52.198;5.422;2024-01-25T00:22:00;102562.19;;;7.14;100.00
64844;BME280;51310;52.198;5.422;2024-01-25T00:24:26;102569.28;;;7.14;100.00
64844;BME280;51310;52.198;5.422;2024-01-25T00:26:52;102578.06;;;7.17;100.00
64844;BME280;51310;52.198;5.422;2024-01-25T00:29:18;102561.34;;;7.12;100.00
64844;BME280;51310;52.198;5.422;2024-01-25T00:31:44;102568.47;;;7.10;100.00
64844;BME280;51310;52.198;5.422;2024-01-25T00:34:10;102563.28;;;7.04;100.00
64844;BME280;51310;52.198;5.422;2024-01-25T00:36:37;102558.22;;;6.92;100.00
64844;BME280;51310;52.198;5.422;2024-01-25T00:39:03;102557.47;;;6.85;100.00
64844;BME280;51310;52.198;5.422;2024-01-25T00:41:32;102566.22;;;6.90;100.00
64844;BME280;51310;52.198;5.422;2024-01-25T00:43:59;102561.09;;;6.81;100.00
64844;BME280;51310;52.198;5.422;2024-01-25T00:46:25;102589.28;;;6.90;100.00
64844;BME280;51310;52.198;5.422;2024-01-25T00:48:51;102583.22;;;6.81;100.00
64844;BME280;51310;52.198;5.422;2024-01-25T00:51:22;102581.59;;;6.74;100.00
64844;BME280;51310;52.198;5.422;2024-01-25T00:53:49;102590.41;;;6.76;100.00
64844;BME280;51310;52.198;5.422;2024-01-25T00:56:15;102590.44;;;6.73;100.00
64844;BME280;51310;52.198;5.422;2024-01-25T00:58:41;102582.72;;;6.61;100.00
64844;BME280;51310;52.198;5.422;2024-01-25T01:01:08;102602.94;;;6.71;100.00
64844;BME280;51310;52.198;5.422;2024-01-25T01:03:36;102597.72;;;6.65;100.00
64844;BME280;51310;52.198;5.422;2024-01-25T01:06:02;102600.38;;;6.65;100.00
64844;BME280;51310;52.198;5.422;2024-01-25T01:08:29;102590.75;;;6.58;100.00
64844;BME280;51310;52.198;5.422;2024-01-25T01:10:55;102604.06;;;6.56;100.00
64844;BME280;51310;52.198;5.422;2024-01-25T01:13:21;102603.22;;;6.53;100.00
64844;BME280;51310;52.198;5.422;2024-01-25T01:15:46;102603.31;;;6.50;100.00
64844;BME280;51310;52.198;5.422;2024-01-25T01:18:12;102604.41;;;6.36;100.00
64844;BME280;51310;52.198;5.422;2024-01-25T01:20:38;102601.81;;;6.33;100.00
64844;BME280;51310;52.198;5.422;2024-01-25T01:23:04;102574.72;;;6.13;100.00
64844;BME280;51310;52.198;5.422;2024-01-25T01:25:30;102614.31;;;6.27;100.00
64844;BME280;51310;52.198;5.422;2024-01-25T01:27:56;102613.47;;;6.26;100.00
64844;BME280;51310;52.198;5.422;2024-01-25T01:30:22;102614.34;;;6.25;100.00
64844;BME280;51310;52.198;5.422;2024-01-25T01:32:48;102605.56;;;6.21;100.00
64844;BME280;51310;52.198;5.422;2024-01-25T01:35:14;102602.13;;;6.15;100.00
64844;BME280;51310;52.198;5.422;2024-01-25T01:37:40;102613.66;;;6.12;100.00
64844;BME280;51310;52.198;5.422;2024-01-25T01:40:06;102608.41;;;6.09;100.00
64844;BME280;51310;52.198;5.422;2024-01-25T01:42:33;102589.16;;;5.93;100.00
64844;BME280;51310;52.198;5.422;2024-01-25T01:44:59;102619.09;;;6.04;100.00
64844;BME280;51310;52.198;5.422;2024-01-25T01:47:25;102627.13;;;6.01;100.00
64844;BME280;51310;52.198;5.422;2024-01-25T01:49:51;102609.53;;;5.91;100.00
64844;BME280;51310;52.198;5.422;2024-01-25T01:52:18;102613.13;;;5.87;100.00
64844;BME280;51310;52.198;5.422;2024-01-25T01:54:46;102609.72;;;5.79;100.00
64844;BME280;51310;52.198;5.422;2024-01-25T01:57:13;102614.22;;;5.74;100.00
64844;BME280;51310;52.198;5.422;2024-01-25T01:59:39;102623.09;;;5.71;100.00
64844;BME280;51310;52.198;5.422;2024-01-25T02:02:05;102610.88;;;5.61;100.00
64844;BME280;51310;52.198;5.422;2024-01-25T02:04:32;102619.75;;;5.58;100.00
64844;BME280;51310;52.198;5.422;2024-01-25T02:06:58;102612.88;;;5.43;100.00
64844;BME280;51310;52.198;5.422;2024-01-25T02:09:24;102627.94;;;5.40;100.00
64844;BME280;51310;52.198;5.422;2024-01-25T02:12:02;102628.88;;;5.36;100.00
64844;BME280;51310;52.198;5.422;2024-01-25T02:14:28;102610.53;;;5.19;100.00
64844;BME280;51310;52.198;5.422;2024-01-25T02:16:56;102647.63;;;5.20;100.00
64844;BME280;51310;52.198;5.422;2024-01-25T02:19:22;102652.06;;;5.17;100.00
64844;BME280;51310;52.198;5.422;2024-01-25T02:21:49;102658.25;;;5.17;100.00
64844;BME280;51310;52.198;5.422;2024-01-25T02:24:19;102660.06;;;5.12;100.00
64844;BME280;51310;52.198;5.422;2024-01-25T02:26:45;102664.56;;;5.07;100.00
64844;BME280;51310;52.198;5.422;2024-01-25T02:29:11;102663.78;;;4.96;100.00
64844;BME280;51310;52.198;5.422;2024-01-25T02:31:37;102669.19;;;4.87;100.00
64844;BME280;51310;52.198;5.422;2024-01-25T02:34:02;102663.97;;;4.77;100.00
64844;BME280;51310;52.198;5.422;2024-01-25T02:36:28;102659.69;;;4.61;100.00
64844;BME280;51310;52.198;5.422;2024-01-25T02:38:54;102669.47;;;4.56;100.00
64844;BME280;51310;52.198;5.422;2024-01-25T02:41:20;102675.66;;;4.53;100.00
64844;BME280;51310;52.198;5.422;2024-01-25T02:43:46;102668.66;;;4.46;100.00
64844;BME280;51310;52.198;5.422;2024-01-25T02:46:12;102669.59;;;4.42;100.00
64844;BME280;51310;52.198;5.422;2024-01-25T02:48:38;102675.78;;;4.38;100.00
64844;BME280;51310;52.198;5.422;2024-01-25T02:51:04;102673.13;;;4.36;100.00
64844;BME280;51310;52.198;5.422;2024-01-25T02:53:30;102687.31;;;4.31;100.00
64844;BME280;51310;52.198;5.422;2024-01-25T02:55:56;102679.44;;;4.22;100.00
64844;BME280;51310;52.198;5.422;2024-01-25T02:58:22;102684.75;;;4.18;100.00
64844;BME280;51310;52.198;5.422;2024-01-25T03:00:48;102681.28;;;4.07;100.00
64844;BME280;51310;52.198;5.422;2024-01-25T03:03:14;102694.50;;;4.07;100.00
64844;BME280;51310;52.198;5.422;2024-01-25T03:05:40;102687.47;;;4.05;100.00
64844;BME280;51310;52.198;5.422;2024-01-25T03:08:06;102677.72;;;4.14;100.00
64844;BME280;51310;52.198;5.422;2024-01-25T03:10:32;102654.84;;;4.06;100.00
64844;BME280;51310;52.198;5.422;2024-01-25T03:12:58;102676.84;;;4.17;100.00
64844;BME280;51310;52.198;5.422;2024-01-25T03:15:23;102675.13;;;4.07;100.00
64844;BME280;51310;52.198;5.422;2024-01-25T03:17:49;102660.22;;;3.96;100.00
64844;BME280;51310;52.198;5.422;2024-01-25T03:20:15;102652.25;;;3.98;100.00
64844;BME280;51310;52.198;5.422;2024-01-25T03:22:41;102665.53;;;3.92;100.00
64844;BME280;51310;52.198;5.422;2024-01-25T03:25:07;102680.50;;;3.94;100.00
64844;BME280;51310;52.198;5.422;2024-01-25T03:27:34;102678.78;;;3.84;100.00
64844;BME280;51310;52.198;5.422;2024-01-25T03:30:00;102677.91;;;3.85;100.00
64844;BME280;51310;52.198;5.422;2024-01-25T03:32:26;102675.28;;;3.79;100.00
64844;BME280;51310;52.198;5.422;2024-01-25T03:34:52;102677.06;;;3.77;100.00
64844;BME280;51310;52.198;5.422;2024-01-25T03:37:18;102670.91;;;3.73;100.00
64844;BME280;51310;52.198;5.422;2024-01-25T03:39:44;102670.91;;;3.73;100.00
64844;BME280;51310;52.198;5.422;2024-01-25T03:42:09;102670.03;;;3.76;100.00
64844;BME280;51310;52.198;5.422;2024-01-25T03:44:35;102656.81;;;3.76;100.00
64844;BME280;51310;52.198;5.422;2024-01-25T03:47:01;102653.28;;;3.72;100.00
64844;BME280;51310;52.198;5.422;2024-01-25T03:49:27;102669.06;;;3.86;100.00
64844;BME280;51310;52.198;5.422;2024-01-25T03:51:53;102670.00;;;3.79;100.00
64844;BME280;51310;52.198;5.422;2024-01-25T03:54:19;102673.56;;;3.70;100.00
64844;BME280;51310;52.198;5.422;2024-01-25T03:56:45;102658.66;;;3.51;100.00
64844;BME280;51310;52.198;5.422;2024-01-25T03:59:11;102671.03;;;3.52;100.00
64844;BME280;51310;52.198;5.422;2024-01-25T04:01:45;102683.38;;;3.42;100.00
64844;BME280;51310;52.198;5.422;2024-01-25T04:04:13;102679.84;;;3.42;100.00
64844;BME280;51310;52.198;5.422;2024-01-25T04:06:42;102672.81;;;3.45;100.00
64844;BME280;51310;52.198;5.422;2024-01-25T04:09:09;102654.28;;;3.42;100.00
64844;BME280;51310;52.198;5.422;2024-01-25T04:11:36;102669.25;;;3.51;100.00
64844;BME280;51310;52.198;5.422;2024-01-25T04:14:03;102662.16;;;3.61;100.00
64844;BME280;51310;52.198;5.422;2024-01-25T04:16:31;102659.56;;;3.48;100.00
64844;BME280;51310;52.198;5.422;2024-01-25T04:18:58;102675.44;;;3.51;100.00
64844;BME280;51310;52.198;5.422;2024-01-25T04:21:24;102665.78;;;3.38;100.00
64844;BME280;51310;52.198;5.422;2024-01-25T04:23:50;102675.44;;;3.42;100.00
64844;BME280;51310;52.198;5.422;2024-01-25T04:26:15;102685.13;;;3.48;100.00
64844;BME280;51310;52.198;5.422;2024-01-25T04:28:42;102679.81;;;3.52;100.00
64844;BME280;51310;52.198;5.422;2024-01-25T04:31:08;102677.19;;;3.46;100.00
64844;BME280;51310;52.198;5.422;2024-01-25T04:33:34;102686.88;;;3.53;100.00
64844;BME280;51310;52.198;5.422;2024-01-25T04:36:01;102685.13;;;3.49;100.00
64844;BME280;51310;52.198;5.422;2024-01-25T04:38:27;102688.66;;;3.47;100.00
64844;BME280;51310;52.198;5.422;2024-01-25T04:40:52;102675.44;;;3.51;100.00
64844;BME280;51310;52.198;5.422;2024-01-25T04:43:18;102678.97;;;3.41;100.00
64844;BME280;51310;52.198;5.422;2024-01-25T04:45:44;102675.47;;;3.39;100.00
64844;BME280;51310;52.198;5.422;2024-01-25T04:48:10;102658.78;;;3.28;100.00
64844;BME280;51310;52.198;5.422;2024-01-25T04:50:36;102667.56;;;3.36;100.00
64844;BME280;51310;52.198;5.422;2024-01-25T04:53:02;102660.50;;;3.37;100.00
64844;BME280;51310;52.198;5.422;2024-01-25T04:55:28;102663.13;;;3.35;100.00
64844;BME280;51310;52.198;5.422;2024-01-25T04:57:54;102684.28;;;3.38;100.00
64844;BME280;51310;52.198;5.422;2024-01-25T05:00:22;102665.81;;;3.27;100.00
64844;BME280;51310;52.198;5.422;2024-01-25T05:02:48;102693.13;;;3.34;100.00
64844;BME280;51310;52.198;5.422;2024-01-25T05:05:15;102686.97;;;3.29;100.00
64844;BME280;51310;52.198;5.422;2024-01-25T05:07:41;102687.81;;;3.37;100.00
64844;BME280;51310;52.198;5.422;2024-01-25T05:10:07;102678.19;;;3.22;100.00
64844;BME280;51310;52.198;5.422;2024-01-25T05:12:33;102674.66;;;3.19;100.00
64844;BME280;51310;52.198;5.422;2024-01-25T05:14:59;102686.06;;;3.33;100.00
64844;BME280;51310;52.198;5.422;2024-01-25T05:17:25;102670.25;;;3.21;100.00
64844;BME280;51310;52.198;5.422;2024-01-25T05:19:51;102694.91;;;3.20;100.00
64844;BME280;51310;52.198;5.422;2024-01-25T05:22:17;102690.50;;;3.12;100.00
64844;BME280;51310;52.198;5.422;2024-01-25T05:24:43;102675.59;;;2.90;100.00
64844;BME280;51310;52.198;5.422;2024-01-25T05:27:09;102704.63;;;3.04;100.00
64844;BME280;51310;52.198;5.422;2024-01-25T05:29:35;102694.06;;;3.07;100.00
64844;BME280;51310;52.198;5.422;2024-01-25T05:32:00;102697.56;;;3.13;100.00
64844;BME280;51310;52.198;5.422;2024-01-25T05:34:26;102704.63;;;3.13;100.00
64844;BME280;51310;52.198;5.422;2024-01-25T05:36:52;102705.50;;;3.10;100.00
64844;BME280;51310;52.198;5.422;2024-01-25T05:39:18;102700.22;;;3.06;100.00
64844;BME280;51310;52.198;5.422;2024-01-25T05:41:45;102700.22;;;3.12;100.00
64844;BME280;51310;52.198;5.422;2024-01-25T05:44:12;102701.97;;;3.05;100.00
64844;BME280;51310;52.198;5.422;2024-01-25T05:46:38;102726.63;;;3.17;100.00
64844;BME280;51310;52.198;5.422;2024-01-25T05:49:04;102727.47;;;3.22;100.00
64844;BME280;51310;52.198;5.422;2024-01-25T05:51:30;102720.47;;;3.18;100.00
64844;BME280;51310;52.198;5.422;2024-01-25T05:53:56;102717.84;;;3.18;100.00
64844;BME280;51310;52.198;5.422;2024-01-25T05:56:22;102712.50;;;3.24;100.00
64844;BME280;51310;52.198;5.422;2024-01-25T05:58:48;102682.56;;;3.22;100.00
64844;BME280;51310;52.198;5.422;2024-01-25T06:01:14;102714.25;;;3.26;100.00
64844;BME280;51310;52.198;5.422;2024-01-25T06:03:40;102720.44;;;3.24;100.00
64844;BME280;51310;52.198;5.422;2024-01-25T06:06:06;102720.44;;;3.25;100.00
64844;BME280;51310;52.198;5.422;2024-01-25T06:08:33;102723.09;;;3.15;100.00
64844;BME280;51310;52.198;5.422;2024-01-25T06:11:00;102723.97;;;3.20;100.00
64844;BME280;51310;52.198;5.422;2024-01-25T06:13:26;102726.59;;;3.26;100.00
64844;BME280;51310;52.198;5.422;2024-01-25T06:15:52;102712.53;;;3.18;100.00
64844;BME280;51310;52.198;5.422;2024-01-25T06:18:18;102713.41;;;3.17;100.00
64844;BME280;51310;52.198;5.422;2024-01-25T06:20:44;102737.19;;;3.20;100.00
64844;BME280;51310;52.198;5.422;2024-01-25T06:23:10;102731.06;;;3.13;100.00
64844;BME280;51310;52.198;5.422;2024-01-25T06:25:35;102732.75;;;3.26;100.00
64844;BME280;51310;52.198;5.422;2024-01-25T06:28:03;102726.56;;;3.35;100.00
64844;BME280;51310;52.198;5.422;2024-01-25T06:30:29;102709.84;;;3.28;100.00
64844;BME280;51310;52.198;5.422;2024-01-25T06:32:55;102726.59;;;3.32;100.00
64844;BME280;51310;52.198;5.422;2024-01-25T06:35:21;102725.72;;;3.30;100.00
64844;BME280;51310;52.198;5.422;2024-01-25T06:37:47;102739.81;;;3.20;100.00
64844;BME280;51310;52.198;5.422;2024-01-25T06:40:13;102734.56;;;3.10;100.00
64844;BME280;51310;52.198;5.422;2024-01-25T06:42:39;102723.13;;;2.99;100.00
64844;BME280;51310;52.198;5.422;2024-01-25T06:45:05;102735.47;;;3.11;100.00
64844;BME280;51310;52.198;5.422;2024-01-25T06:47:31;102742.47;;;3.17;100.00
64844;BME280;51310;52.198;5.422;2024-01-25T06:49:57;102733.66;;;3.24;100.00
64844;BME280;51310;52.198;5.422;2024-01-25T06:52:23;102744.22;;;3.24;100.00
64844;BME280;51310;52.198;5.422;2024-01-25T06:54:49;102725.75;;;3.11;100.00
64844;BME280;51310;52.198;5.422;2024-01-25T06:57:15;102756.59;;;3.09;100.00
64844;BME280;51310;52.198;5.422;2024-01-25T06:59:41;102742.47;;;3.10;100.00
64844;BME280;51310;52.198;5.422;2024-01-25T07:02:07;102754.81;;;3.05;100.00
64844;BME280;51310;52.198;5.422;2024-01-25T07:04:32;102747.78;;;3.13;100.00
64844;BME280;51310;52.198;5.422;2024-01-25T07:06:58;102742.47;;;3.26;100.00
64844;BME280;51310;52.198;5.422;2024-01-25T07:09:26;102741.56;;;3.34;100.00
64844;BME280;51310;52.198;5.422;2024-01-25T07:11:51;102738.03;;;3.34;100.00
64844;BME280;51310;52.198;5.422;2024-01-25T07:14:17;102721.31;;;3.29;100.00
64844;BME280;51310;52.198;5.422;2024-01-25T07:16:43;102735.41;;;3.28;100.00
64844;BME280;51310;52.198;5.422;2024-01-25T07:19:09;102748.63;;;3.22;100.00
64844;BME280;51310;52.198;5.422;2024-01-25T07:21:35;102738.97;;;3.13;100.00
64844;BME280;51310;52.198;5.422;2024-01-25T07:24:03;102754.81;;;3.21;100.00
64844;BME280;51310;52.198;5.422;2024-01-25T07:26:32;102749.53;;;3.27;100.00
64844;BME280;51310;52.198;5.422;2024-01-25T07:28:58;102758.28;;;3.43;100.00
64844;BME280;51310;52.198;5.422;2024-01-25T07:31:26;102755.59;;;3.49;100.00
64844;BME280;51310;52.198;5.422;2024-01-25T07:33:53;102761.78;;;3.54;100.00
64844;BME280;51310;52.198;5.422;2024-01-25T07:36:20;102747.69;;;3.50;100.00
64844;BME280;51310;52.198;5.422;2024-01-25T07:38:46;102747.69;;;3.53;100.00
64844;BME280;51310;52.198;5.422;2024-01-25T07:41:13;102738.03;;;3.40;100.00
64844;BME280;51310;52.198;5.422;2024-01-25T07:43:41;102756.50;;;3.46;100.00
64844;BME280;51310;52.198;5.422;2024-01-25T07:46:07;102730.94;;;3.42;100.00
64844;BME280;51310;52.198;5.422;2024-01-25T07:48:33;102745.06;;;3.46;100.00
64844;BME280;51310;52.198;5.422;2024-01-25T07:50:59;102741.50;;;3.56;100.00
64844;BME280;51310;52.198;5.422;2024-01-25T07:53:25;102738.84;;;3.58;100.00
64844;BME280;51310;52.198;5.422;2024-01-25T07:55:51;102717.72;;;3.50;100.00
64844;BME280;51310;52.198;5.422;2024-01-25T07:58:17;102734.44;;;3.55;100.00
64844;BME280;51310;52.198;5.422;2024-01-25T08:00:42;102739.75;;;3.57;100.00
64844;BME280;51310;52.198;5.422;2024-01-25T08:03:09;102736.22;;;3.56;100.00
64844;BME280;51310;52.198;5.422;2024-01-25T08:05:35;102733.56;;;3.54;100.00
64844;BME280;51310;52.198;5.422;2024-01-25T08:08:01;102739.75;;;3.52;100.00
64844;BME280;51310;52.198;5.422;2024-01-25T08:10:27;102720.41;;;3.38;100.00
64844;BME280;51310;52.198;5.422;2024-01-25T08:12:53;102745.94;;;3.48;100.00
64844;BME280;51310;52.198;5.422;2024-01-25T08:15:19;102754.72;;;3.48;100.00
64844;BME280;51310;52.198;5.422;2024-01-25T08:17:45;102746.81;;;3.47;100.00
64844;BME280;51310;52.198;5.422;2024-01-25T08:20:11;102771.44;;;3.66;100.00
64844;BME280;51310;52.198;5.422;2024-01-25T08:22:40;102773.19;;;3.64;100.00
64844;BME280;51310;52.198;5.422;2024-01-25T08:25:08;102766.13;;;3.64;100.00
64844;BME280;51310;52.198;5.422;2024-01-25T08:27:33;102761.75;;;3.65;100.00
64844;BME280;51310;52.198;5.422;2024-01-25T08:29:59;102759.09;;;3.68;100.00
64844;BME280;51310;52.198;5.422;2024-01-25T08:32:25;102773.19;;;3.74;100.00
64844;BME280;51310;52.198;5.422;2024-01-25T08:34:51;102759.94;;;3.79;100.00
64844;BME280;51310;52.198;5.422;2024-01-25T08:37:17;102745.81;;;3.77;100.00
64844;BME280;51310;52.198;5.422;2024-01-25T08:39:43;102746.69;;;3.82;100.00
64844;BME280;51310;52.198;5.422;2024-01-25T08:42:11;102744.03;;;3.82;100.00
64844;BME280;51310;52.198;5.422;2024-01-25T08:44:38;102748.38;;;3.97;100.00
64844;BME280;51310;52.198;5.422;2024-01-25T08:47:05;102768.59;;;4.10;100.00
64844;BME280;51310;52.198;5.422;2024-01-25T08:49:31;102758.91;;;4.05;100.00
64844;BME280;51310;52.198;5.422;2024-01-25T08:51:57;102772.09;;;4.15;100.00
64844;BME280;51310;52.198;5.422;2024-01-25T08:54:23;102779.16;;;4.21;100.00
64844;BME280;51310;52.198;5.422;2024-01-25T08:56:48;102774.69;;;4.23;100.00
64844;BME280;51310;52.198;5.422;2024-01-25T08:59:14;102777.31;;;4.28;100.00
64844;BME280;51310;52.198;5.422;2024-01-25T09:01:40;102779.00;;;4.43;100.00
64844;BME280;51310;52.198;5.422;2024-01-25T09:04:06;102765.75;;;4.43;100.00
64844;BME280;51310;52.198;5.422;2024-01-25T09:06:33;102765.72;;;4.49;100.00
64844;BME280;51310;52.198;5.422;2024-01-25T09:08:59;102772.75;;;4.57;100.00
64844;BME280;51310;52.198;5.422;2024-01-25T09:11:24;102770.94;;;4.61;100.00
64844;BME280;51310;52.198;5.422;2024-01-25T09:13:50;102761.25;;;4.62;100.00
64844;BME280;51310;52.198;5.422;2024-01-25T09:16:16;102770.88;;;4.67;100.00
64844;BME280;51310;52.198;5.422;2024-01-25T09:18:42;102763.84;;;4.63;100.00
64844;BME280;51310;52.198;5.422;2024-01-25T09:27:37;102791.81;;;5.01;100.00
64844;BME280;51310;52.198;5.422;2024-01-25T09:30:05;102774.13;;;5.03;100.00
64844;BME280;51310;52.198;5.422;2024-01-25T09:32:31;102785.47;;;5.20;100.00
64844;BME280;51310;52.198;5.422;2024-01-25T09:34:57;102755.50;;;5.11;100.00
64844;BME280;51310;52.198;5.422;2024-01-25T09:37:23;102772.09;;;5.31;100.00
64844;BME280;51310;52.198;5.422;2024-01-25T09:39:50;102766.72;;;5.39;100.00
64844;BME280;51310;52.198;5.422;2024-01-25T09:42:19;102749.03;;;5.41;100.00
64844;BME280;51310;52.198;5.422;2024-01-25T09:44:45;102767.38;;;5.58;100.00
64844;BME280;51310;52.198;5.422;2024-01-25T09:47:12;102757.56;;;5.66;100.00
64844;BME280;51310;52.198;5.422;2024-01-25T09:49:39;102778.75;;;5.72;100.00
64844;BME280;51310;52.198;5.422;2024-01-25T09:52:07;102778.69;;;5.74;100.00
64844;BME280;51310;52.198;5.422;2024-01-25T09:54:38;102777.75;;;5.81;100.00
64844;BME280;51310;52.198;5.422;2024-01-25T09:57:24;102774.13;;;5.88;100.00
64844;BME280;51310;52.198;5.422;2024-01-25T09:59:54;102772.34;;;5.87;100.00
64844;BME280;51310;52.198;5.422;2024-01-25T10:02:23;102763.44;;;5.93;100.00
64844;BME280;51310;52.198;5.422;2024-01-25T10:04:52;102756.44;;;5.87;100.00
64844;BME280;51310;52.198;5.422;2024-01-25T10:07:41;102745.72;;;5.98;100.00
64844;BME280;51310;52.198;5.422;2024-01-25T10:10:10;102742.19;;;5.97;100.00
64844;BME280;51310;52.198;5.422;2024-01-25T10:12:40;102743.06;;;5.96;100.00
64844;BME280;51310;52.198;5.422;2024-01-25T10:15:08;102750.16;;;5.94;100.00
64844;BME280;51310;52.198;5.422;2024-01-25T10:17:35;102759.84;;;6.00;100.00
64844;BME280;51310;52.198;5.422;2024-01-25T10:20:04;102779.28;;;6.03;100.00
64844;BME280;51310;52.198;5.422;2024-01-25T10:22:33;102763.28;;;6.07;100.00
64844;BME280;51310;52.198;5.422;2024-01-25T10:24:58;102759.72;;;6.11;100.00
64844;BME280;51310;52.198;5.422;2024-01-25T10:27:24;102756.06;;;6.16;100.00
64844;BME280;51310;52.198;5.422;2024-01-25T10:29:50;102768.41;;;6.20;100.00
64844;BME280;51310;52.198;5.422;2024-01-25T10:32:16;102769.31;;;6.19;100.00
64844;BME280;51310;52.198;5.422;2024-01-25T10:34:44;102763.03;;;6.25;100.00
64844;BME280;51310;52.198;5.422;2024-01-25T10:37:14;102758.47;;;6.35;100.00
64844;BME280;51310;52.198;5.422;2024-01-25T10:39:41;102738.13;;;6.32;100.00
64844;BME280;51310;52.198;5.422;2024-01-25T10:42:08;102743.16;;;6.51;100.00
64844;BME280;51310;52.198;5.422;2024-01-25T10:44:34;102737.75;;;6.57;100.00
64844;BME280;51310;52.198;5.422;2024-01-25T10:47:00;102744.72;;;6.64;100.00
64844;BME280;51310;52.198;5.422;2024-01-25T10:49:27;102742.84;;;6.72;100.00
64844;BME280;51310;52.198;5.422;2024-01-25T10:51:54;102756.03;;;6.78;100.00
64844;BME280;51310;52.198;5.422;2024-01-25T10:54:21;102746.28;;;6.77;100.00
64844;BME280;51310;52.198;5.422;2024-01-25T10:56:48;102733.69;;;6.88;100.00
64844;BME280;51310;52.198;5.422;2024-01-25T10:59:15;102722.25;;;6.85;100.00
64844;BME280;51310;52.198;5.422;2024-01-25T11:01:46;102743.28;;;6.99;100.00
64844;BME280;51310;52.198;5.422;2024-01-25T11:04:16;102744.13;;;7.01;100.00
64844;BME280;51310;52.198;5.422;2024-01-25T11:06:44;102728.28;;;6.93;100.00
64844;BME280;51310;52.198;5.422;2024-01-25T11:09:19;102701.75;;;6.92;100.00
64844;BME280;51310;52.198;5.422;2024-01-25T11:11:48;102706.91;;;7.01;100.00
64844;BME280;51310;52.198;5.422;2024-01-25T11:14:15;102703.28;;;7.05;100.00
64844;BME280;51310;52.198;5.422;2024-01-25T11:16:44;102704.94;;;7.12;100.00
64844;BME280;51310;52.198;5.422;2024-01-25T11:19:20;102691.53;;;7.18;100.00
64844;BME280;51310;52.198;5.422;2024-01-25T11:21:50;102685.19;;;7.25;100.00
64844;BME280;51310;52.198;5.422;2024-01-25T11:24:24;102686.72;;;7.36;100.00
64844;BME280;51310;52.198;5.422;2024-01-25T11:26:55;102694.59;;;7.42;100.00
64844;BME280;51310;52.198;5.422;2024-01-25T11:29:21;102702.47;;;7.48;100.00
64844;BME280;51310;52.198;5.422;2024-01-25T11:31:51;102706.88;;;7.47;100.00
64844;BME280;51310;52.198;5.422;2024-01-25T11:34:18;102706.09;;;7.44;100.00
64844;BME280;51310;52.198;5.422;2024-01-25T11:36:44;102703.44;;;7.44;100.00
64844;BME280;51310;52.198;5.422;2024-01-25T11:39:12;102663.72;;;7.35;100.00
64844;BME280;51310;52.198;5.422;2024-01-25T11:41:39;102639.69;;;7.39;100.00
64844;BME280;51310;52.198;5.422;2024-01-25T11:44:05;102656.19;;;7.55;100.00
64844;BME280;51310;52.198;5.422;2024-01-25T11:46:31;102667.69;;;7.57;100.00
64844;BME280;51310;52.198;5.422;2024-01-25T11:49:00;102659.81;;;7.51;100.00
64844;BME280;51310;52.198;5.422;2024-01-25T11:51:27;102675.63;;;7.59;100.00
64844;BME280;51310;52.198;5.422;2024-01-25T11:53:53;102648.94;;;7.63;100.00
64844;BME280;51310;52.198;5.422;2024-01-25T11:56:28;102633.63;;;7.73;100.00
64844;BME280;51310;52.198;5.422;2024-01-25T11:58:56;102623.00;;;7.71;100.00
64844;BME280;51310;52.198;5.422;2024-01-25T12:01:24;102628.31;;;7.73;100.00
64844;BME280;51310;52.198;5.422;2024-01-25T12:03:51;102635.38;;;7.74;100.00
64844;BME280;51310;52.198;5.422;2024-01-25T12:06:18;102645.25;;;7.67;100.00
64844;BME280;51310;52.198;5.422;2024-01-25T12:08:45;102646.22;;;7.65;100.00
64844;BME280;51310;52.198;5.422;2024-01-25T12:11:14;102619.84;;;7.54;100.00
64844;BME280;51310;52.198;5.422;2024-01-25T12:13:42;102635.53;;;7.66;100.00
64844;BME280;51310;52.198;5.422;2024-01-25T12:16:09;102623.13;;;7.65;100.00
64844;BME280;51310;52.198;5.422;2024-01-25T12:18:38;102618.75;;;7.64;100.00
64844;BME280;51310;52.198;5.422;2024-01-25T12:21:06;102615.09;;;7.68;100.00
64844;BME280;51310;52.198;5.422;2024-01-25T12:26:05;102620.00;;;7.87;100.00
64844;BME280;51310;52.198;5.422;2024-01-25T12:28:33;102618.06;;;7.93;100.00
64844;BME280;51310;52.198;5.422;2024-01-25T12:31:04;102621.47;;;8.00;100.00
64844;BME280;51310;52.198;5.422;2024-01-25T12:33:32;102592.28;;;7.96;100.00
64844;BME280;51310;52.198;5.422;2024-01-25T12:35:59;102605.25;;;8.09;100.00
64844;BME280;51310;52.198;5.422;2024-01-25T12:38:26;102615.78;;;8.16;100.00
64844;BME280;51310;52.198;5.422;2024-01-25T12:40:53;102611.22;;;8.19;100.00
64844;BME280;51310;52.198;5.422;2024-01-25T12:43:19;102589.13;;;8.16;100.00
64844;BME280;51310;52.198;5.422;2024-01-25T12:45:49;102576.59;;;8.19;100.00
64844;BME280;51310;52.198;5.422;2024-01-25T12:48:15;102606.13;;;8.47;100.00
64844;BME280;51310;52.198;5.422;2024-01-25T12:50:41;102585.81;;;8.42;100.00
64844;BME280;51310;52.198;5.422;2024-01-25T12:53:10;102592.56;;;8.57;100.00
64844;BME280;51310;52.198;5.422;2024-01-25T12:55:38;102574.47;;;8.68;100.00